KPWG

Details ICAO KPWG
Name MC GREGOR EXECUTIVE
Region United States
Timezone America/Chicago (UTC-5.0)
Plans Departing 9
Arriving 5
Stats Elevation 592 ft / 180 m (AMSL)
Location 31.484549° -97.316034°
Runways 2
Magnetic Variation 3.557° E
Sunrise 2018-05-24 11:29:26 UTC / 2018-05-24 06:29:26 Local
Sunset 2018-05-25 01:25:41 UTC / 2018-05-24 20:25:41 Local
Advertisement - Login to hide

Runways

ID Width Length Bearing (true) Bearing (mag) Surface Threshold Offset Overrun Length
04 55 ft / 17 m 3,462 ft / 1,055 m 43.83° 40.27° Asphalt 0 ft / 0 m 0 ft / 0 m
17 75 ft / 23 m 5,518 ft / 1,682 m 179.00° 175.44° Asphalt 0 ft / 0 m 0 ft / 0 m
22 55 ft / 17 m 3,462 ft / 1,055 m 223.83° 220.27° Asphalt 0 ft / 0 m 1,700 ft / 518 m
35 75 ft / 23 m 5,518 ft / 1,682 m 359.00° 355.44° Asphalt 0 ft / 0 m 0 ft / 0 m

Map

Weather


0- 5 10 15 20 25 30 35+ Temperature / ° C

Clouds and Precipitation
Forecast for 2018-05-24 18:00 UTC. Updated 3 hours ago

Ground ~20,000 ft ~40,000 ft Winds

METAR

KPWG 241956Z AUTO VRB06KT 10SM FEW048 33/19 A3004 RMK AO2 SLP175 T03280194

TAF

Not found

Frequencies

Recorded 135.52 MHz AWOS 3
Approach 135.20 MHz WACO APP
Unicom 122.80 MHz CTAF/UNICOM
Departure 126.12 MHz WACO DEP
Warning: Do not use this data for real-world aviation or navigation. No guarantee of current accuracy is given.